Search for airport 
image banner adimage banner adimage banner ad
image banner ad

KCKP - Cherokee County Rgnl

Located in Cherokee, United States

ICAO - CKP, IATA -

Data provided by Airmate  

General information

Coordinates: N42°43'53" W95°33'22"
Elevation is 1226 feet MSL.
Magnetic variation is 05° East
View others Airports in Iowa

Operational data

Special qualification required
Current time UTC:
Current local time:
Weather
METAR: KCKP 151015Z AUTO 00000KT 10SM CLR 12/12 A3014 RMK AO2 T01210117
View NOTAMs / SUP AIP / TFR affecting this airport [VIEW]
Communications frequencies: [VIEW]

Runways:

RWY identifierQFULength (ft)Width (ft)SurfaceLDA (ft)
0111°2621100GRASS
19191°2621100GRASS
18183°400175CONC
36400175CONC

Airport contact information

Address: Cherokee United States

Other aviation service providers

Flight schools

Cherokee Flying Club

Cherokee Flying Club

Satellite view of KCKP